Time;durP1;ratioP1;P1;durP2;ratioP2;P2;SDS_P1;SDS_P2;PMS_P1;PMS_P2;Temp;Humidity;BMP_temperature;BMP_pressure;BME280_temperature;BME280_humidity;BME280_pressure;Samples;Min_cycle;Max_cycle;Signal;HPM_P1;HPM_P2
2023/10/08 00:02:25;;;;;;;0.38;0.10;;;;;;;13.79;96.04;101291.63;7389803;19;20352;-64
2023/10/08 00:04:55;;;;;;;0.60;0.20;;;;;;;13.76;95.65;101313.31;7388705;19;20376;-64
2023/10/08 00:07:24;;;;;;;0.70;0.20;;;;;;;13.72;96.47;101317.34;7391674;19;20864;-64
2023/10/08 00:09:51;;;;;;;0.30;0.20;;;;;;;13.66;96.71;101326.06;7389329;19;20368;-64
2023/10/08 00:12:19;;;;;;;0.30;0.20;;;;;;;13.61;96.87;101342.59;7390648;19;20372;-64
2023/10/08 00:14:49;;;;;;;0.50;0.20;;;;;;;13.61;96.98;101345.28;7392944;19;20755;-64
2023/10/08 00:17:19;;;;;;;0.68;0.30;;;;;;;13.62;97.51;101335.44;7390522;19;20356;-64
2023/10/08 00:19:52;;;;;;;0.73;0.20;;;;;;;13.57;98.24;101329.81;7389806;19;20409;-64
2023/10/08 00:22:20;;;;;;;0.35;0.20;;;;;;;13.52;98.45;101326.88;7389934;19;20348;-65
2023/10/08 00:24:49;;;;;;;0.30;0.20;;;;;;;13.54;98.41;101328.34;7389215;19;20352;-64
2023/10/08 00:27:17;;;;;;;1.07;0.27;;;;;;;13.51;98.72;101336.69;7388094;19;20440;-64
2023/10/08 00:29:45;;;;;;;0.65;0.15;;;;;;;13.49;98.77;101327.22;7387496;19;20385;-64
2023/10/08 00:32:12;;;;;;;0.20;0.10;;;;;;;13.43;98.67;101340.25;7391374;19;20702;-64
2023/10/08 00:34:43;;;;;;;0.22;0.03;;;;;;;13.34;98.47;101346.63;7388595;19;20373;-64
2023/10/08 00:37:13;;;;;;;0.28;0.00;;;;;;;13.32;98.73;101356.63;7390256;19;20379;-64
2023/10/08 00:39:41;;;;;;;1.08;0.10;;;;;;;13.29;98.92;101359.66;7388748;19;20352;-64
2023/10/08 00:42:09;;;;;;;0.20;0.10;;;;;;;13.25;99.29;101369.81;7393624;19;20356;-64
2023/10/08 00:44:47;;;;;;;0.30;0.10;;;;;;;13.21;99.57;101386.31;7399820;19;20741;-64
2023/10/08 00:47:16;;;;;;;0.20;0.10;;;;;;;13.16;99.20;101396.69;7397725;19;20352;-65
2023/10/08 00:49:54;;;;;;;0.30;0.10;;;;;;;13.08;98.73;101402.06;7397604;19;20360;-64
2023/10/08 00:52:38;;;;;;;0.40;0.10;;;;;;;13.00;99.00;101410.91;7397649;19;20903;-64
2023/10/08 00:55:14;;;;;;;0.55;0.10;;;;;;;12.96;98.66;101423.75;7397654;19;20360;-64
2023/10/08 00:57:42;;;;;;;0.13;0.10;;;;;;;12.88;99.00;101434.44;7396643;19;20368;-64
2023/10/08 01:00:17;;;;;;;0.20;0.10;;;;;;;12.81;98.75;101434.28;7395303;19;20357;-64
2023/10/08 01:03:00;;;;;;;1.00;0.28;;;;;;;12.69;99.37;101451.63;7394898;19;20352;-64
2023/10/08 01:05:46;;;;;;;1.10;0.30;;;;;;;12.54;98.36;101462.13;7398265;19;20900;-64
2023/10/08 01:08:22;;;;;;;2.88;0.73;;;;;;;12.38;96.27;101464.81;7396484;19;20356;-64
2023/10/08 01:11:00;;;;;;;4.75;0.85;;;;;;;12.16;95.30;101463.66;7396510;19;20389;-64
2023/10/08 01:13:35;;;;;;;3.35;1.00;;;;;;;12.12;95.96;101463.16;7396739;19;20363;-64
2023/10/08 01:16:02;;;;;;;3.85;0.90;;;;;;;12.05;95.92;101483.44;7394019;19;20359;-63
2023/10/08 01:18:32;;;;;;;4.53;0.77;;;;;;;12.00;95.97;101491.06;7394261;19;20360;-64
2023/10/08 01:21:07;;;;;;;4.18;0.90;;;;;;;11.97;95.81;101489.59;7394532;19;20377;-64
2023/10/08 01:23:35;;;;;;;3.40;0.80;;;;;;;11.98;95.81;101485.09;7396639;19;20619;-64
2023/10/08 01:26:11;;;;;;;4.05;0.90;;;;;;;11.99;95.46;101484.94;7395350;19;20352;-64
2023/10/08 01:28:38;;;;;;;4.35;0.80;;;;;;;12.02;95.87;101494.41;7395515;19;20707;-63
2023/10/08 01:31:06;;;;;;;3.70;0.95;;;;;;;12.09;95.80;101494.56;7396635;19;20334;-63
2023/10/08 01:33:53;;;;;;;3.88;0.90;;;;;;;12.13;96.03;101494.06;7396135;19;20364;-63
2023/10/08 01:36:22;;;;;;;4.10;0.90;;;;;;;12.18;95.75;101499.75;7395947;19;20351;-63
2023/10/08 01:38:49;;;;;;;3.33;0.93;;;;;;;12.19;94.80;101501.38;7396558;19;20363;-63
2023/10/08 01:41:20;;;;;;;3.33;0.73;;;;;;;12.20;94.76;101497.75;7395690;19;20376;-63
2023/10/08 01:43:47;;;;;;;3.05;0.93;;;;;;;12.22;94.64;101502.91;7393615;19;20363;-63
2023/10/08 01:46:15;;;;;;;2.65;0.60;;;;;;;12.22;94.57;101498.41;7394888;19;20344;-63
2023/10/08 01:48:44;;;;;;;2.67;0.70;;;;;;;12.28;94.59;101496.06;7397303;19;20412;-63
2023/10/08 01:51:19;;;;;;;6.55;1.00;;;;;;;12.32;94.42;101506.22;7393323;19;20961;-63
2023/10/08 01:53:47;;;;;;;2.40;0.70;;;;;;;12.37;94.10;101516.38;7391103;19;20368;-63
2023/10/08 01:56:14;;;;;;;2.80;0.70;;;;;;;12.36;93.65;101517.34;7396898;19;20407;-63
2023/10/08 01:58:41;;;;;;;4.05;1.20;;;;;;;12.37;93.82;101508.41;7394675;19;20376;-63
2023/10/08 02:01:12;;;;;;;4.57;0.85;;;;;;;12.40;93.66;101487.59;7390915;19;20339;-63
2023/10/08 02:03:39;;;;;;;2.55;0.73;;;;;;;12.43;93.80;101511.22;7393763;19;20377;-63
2023/10/08 02:06:08;;;;;;;3.90;0.93;;;;;;;12.45;93.43;101511.03;7397119;19;20343;-63
2023/10/08 02:08:36;;;;;;;2.67;0.75;;;;;;;12.48;93.61;101499.25;7397107;19;20364;-63
2023/10/08 02:11:03;;;;;;;3.97;1.00;;;;;;;12.50;93.35;101508.72;7392412;19;20360;-64
2023/10/08 02:13:30;;;;;;;5.53;1.17;;;;;;;12.52;93.55;101509.38;7392440;19;20365;-63
2023/10/08 02:15:58;;;;;;;1.65;0.60;;;;;;;12.50;93.47;101502.56;7396698;19;20371;-64
2023/10/08 02:18:25;;;;;;;3.35;1.00;;;;;;;12.49;93.83;101517.69;7395652;19;20341;-63
2023/10/08 02:20:52;;;;;;;5.75;1.08;;;;;;;12.47;94.00;101522.34;7393245;19;20384;-64
2023/10/08 02:23:19;;;;;;;4.20;1.35;;;;;;;12.46;94.15;101515.38;7394786;19;20475;-64
2023/10/08 02:25:47;;;;;;;3.78;0.93;;;;;;;12.44;94.15;101515.53;7393399;19;20376;-64
2023/10/08 02:28:15;;;;;;;5.50;1.10;;;;;;;12.46;94.46;101507.38;7393165;19;20377;-64
2023/10/08 02:30:43;;;;;;;4.50;1.02;;;;;;;12.47;94.54;101509.03;7393973;19;20368;-63
2023/10/08 02:33:16;;;;;;;3.20;1.00;;;;;;;12.47;94.65;101511.69;7393131;19;20702;-63
2023/10/08 02:35:45;;;;;;;5.28;1.15;;;;;;;12.44;94.29;101509.38;7393571;19;20716;-63
2023/10/08 02:38:18;;;;;;;3.80;0.95;;;;;;;12.44;94.58;101510.19;7393738;19;20368;-63
2023/10/08 02:40:47;;;;;;;3.95;0.90;;;;;;;12.45;94.71;101505.69;7393233;19;20377;-63
2023/10/08 02:43:15;;;;;;;4.95;0.93;;;;;;;12.47;94.51;101509.03;7393035;19;20400;-63
2023/10/08 02:45:47;;;;;;;3.53;0.80;;;;;;;12.46;94.59;101506.56;7393740;19;20379;-63
2023/10/08 02:48:16;;;;;;;3.47;1.00;;;;;;;12.47;94.49;101493.06;7391512;19;20372;-63
2023/10/08 02:50:47;;;;;;;4.38;0.73;;;;;;;12.48;94.32;101501.91;7390366;19;20360;-63
2023/10/08 02:53:23;;;;;;;4.18;1.20;;;;;;;12.50;94.38;101507.88;7394417;19;20743;-63
2023/10/08 02:55:50;;;;;;;4.05;0.77;;;;;;;12.50;94.75;101498.06;7392135;19;20364;-63
2023/10/08 02:58:18;;;;;;;3.47;1.10;;;;;;;12.52;94.80;101511.22;7389951;19;20346;-63
2023/10/08 03:00:48;;;;;;;3.15;0.68;;;;;;;12.49;94.79;101512.34;7389020;19;20380;-63
2023/10/08 03:03:16;;;;;;;3.50;0.70;;;;;;;12.47;94.67;101524.19;7384234;19;20340;-63
2023/10/08 03:05:49;;;;;;;3.95;0.95;;;;;;;12.46;95.01;101528.69;7388514;19;20831;-63
2023/10/08 03:08:20;;;;;;;4.75;0.82;;;;;;;12.45;95.06;101529.66;7387532;19;20368;-63
2023/10/08 03:10:50;;;;;;;3.33;0.85;;;;;;;12.46;95.07;101507.38;7391421;19;20910;-63
2023/10/08 03:13:19;;;;;;;3.78;0.95;;;;;;;12.47;95.33;101503.72;7394708;19;20368;-63
2023/10/08 03:18:36;;;;;;;3.75;0.80;;;;;;;12.52;95.18;101514.69;7392645;19;20683;-63
2023/10/08 03:21:05;;;;;;;4.90;1.20;;;;;;;12.54;95.16;101512.72;7391917;19;20372;-63
2023/10/08 03:23:35;;;;;;;3.20;0.90;;;;;;;12.56;95.24;101520.50;7392972;19;20365;-63
2023/10/08 03:28:34;;;;;;;2.90;0.90;;;;;;;12.55;95.22;101540.16;7392981;19;20344;-63
2023/10/08 03:31:04;;;;;;;3.50;0.90;;;;;;;12.55;95.28;101558.78;7391395;19;20361;-63
2023/10/08 03:33:37;;;;;;;3.88;1.08;;;;;;;12.54;95.41;101562.44;7389395;19;20703;-63
2023/10/08 03:36:20;;;;;;;5.20;1.02;;;;;;;12.53;95.54;101576.75;7392598;19;20382;-63
2023/10/08 03:38:51;;;;;;;4.93;0.90;;;;;;;12.52;95.77;101580.41;7391361;19;20982;-63
2023/10/08 03:41:27;;;;;;;3.92;1.10;;;;;;;12.53;95.96;101566.91;7388182;19;20450;-63
2023/10/08 03:44:01;;;;;;;3.60;0.73;;;;;;;12.54;95.88;101565.94;7387529;19;20352;-63
2023/10/08 03:46:29;;;;;;;5.90;0.95;;;;;;;12.54;95.89;101563.28;7390652;19;20376;-63
2023/10/08 03:48:57;;;;;;;2.17;0.80;;;;;;;12.52;95.70;101565.28;7389735;19;20373;-63
2023/10/08 03:51:27;;;;;;;3.15;1.00;;;;;;;12.49;95.69;101552.28;7392134;19;20484;-63
2023/10/08 03:56:41;;;;;;;2.88;0.90;;;;;;;12.51;96.28;101568.91;7392103;19;20332;-63
2023/10/08 03:59:30;;;;;;;5.88;1.10;;;;;;;12.52;96.18;101575.91;7391286;19;20379;-63
2023/10/08 04:01:59;;;;;;;4.05;0.82;;;;;;;12.53;96.46;101580.22;7386256;19;20420;-62
2023/10/08 04:04:48;;;;;;;3.77;0.93;;;;;;;12.53;96.47;101577.56;7388142;19;20466;-63
2023/10/08 04:12:42;;;;;;;4.32;1.00;;;;;;;12.55;96.41;101590.72;7388059;19;20362;-63
2023/10/08 04:15:09;;;;;;;4.15;0.90;;;;;;;12.56;96.62;101592.34;7393733;19;20368;-62
2023/10/08 04:17:43;;;;;;;3.40;0.93;;;;;;;12.55;96.49;101607.50;7397508;19;20347;-61
2023/10/08 04:20:38;;;;;;;3.75;0.88;;;;;;;12.55;96.46;101612.00;7396345;19;20360;-62
2023/10/08 04:23:20;;;;;;;3.05;0.80;;;;;;;12.53;96.31;101606.84;7397385;19;20363;-62
2023/10/08 04:25:54;;;;;;;3.65;1.00;;;;;;;12.49;96.55;101616.16;7398873;19;20719;-62
2023/10/08 04:28:22;;;;;;;3.22;0.80;;;;;;;12.46;96.77;101618.31;7397764;19;20344;-62
2023/10/08 04:30:50;;;;;;;4.15;1.35;;;;;;;12.39;97.42;101624.31;7398273;19;20356;-62
2023/10/08 04:33:19;;;;;;;4.07;1.25;;;;;;;12.41;97.23;101626.78;7400366;19;20364;-63
2023/10/08 04:35:51;;;;;;;4.88;1.00;;;;;;;12.37;97.44;101620.97;7399424;19;20363;-62
2023/10/08 04:38:28;;;;;;;3.42;1.00;;;;;;;12.36;97.28;101615.81;7400397;19;20678;-62
2023/10/08 04:41:01;;;;;;;2.97;0.90;;;;;;;12.33;97.66;101613.50;7400222;19;21526;-62
2023/10/08 04:43:30;;;;;;;3.22;1.33;;;;;;;12.34;97.68;101604.50;7399583;19;20373;-61
2023/10/08 04:45:58;;;;;;;2.17;0.70;;;;;;;12.33;97.94;101597.53;7399660;19;20413;-62
2023/10/08 04:48:27;;;;;;;3.63;0.95;;;;;;;12.30;98.09;101598.66;7399269;19;20356;-62
2023/10/08 04:51:01;;;;;;;2.50;0.98;;;;;;;12.30;98.01;101619.13;7396245;19;20861;-62
2023/10/08 04:53:35;;;;;;;3.95;1.10;;;;;;;12.27;98.22;101630.09;7397406;19;20361;-62
2023/10/08 04:56:06;;;;;;;6.55;1.20;;;;;;;12.23;98.39;101634.91;7396472;19;20369;-62
2023/10/08 04:58:36;;;;;;;3.92;0.98;;;;;;;12.20;98.45;101645.88;7398810;19;20398;-62
2023/10/08 05:12:10;;;;;;;3.47;1.13;;;;;;;12.22;98.43;101626.09;7395805;19;20375;-62
2023/10/08 05:14:55;;;;;;;4.37;0.97;;;;;;;12.20;98.48;101628.09;7395206;19;20362;-62
2023/10/08 05:17:22;;;;;;;3.63;1.10;;;;;;;12.19;98.52;101630.91;7397366;19;20706;-62
2023/10/08 05:25:08;;;;;;;3.53;0.85;;;;;;;12.16;98.79;101650.69;7396126;19;20991;-61
2023/10/08 05:30:17;;;;;;;4.20;1.10;;;;;;;12.16;99.06;101677.28;7396298;19;20337;-61
2023/10/08 05:33:05;;;;;;;3.75;1.10;;;;;;;12.14;99.14;101678.44;7399269;19;20907;-62
2023/10/08 05:38:13;;;;;;;5.13;1.23;;;;;;;12.18;99.20;101663.84;7397473;19;20374;-62
2023/10/08 05:51:44;;;;;;;5.10;1.17;;;;;;;12.24;99.53;101705.75;7396529;19;20352;-62
2023/10/08 05:54:57;;;;;;;6.13;1.40;;;;;;;12.27;99.44;101699.28;7394277;19;20357;-62
2023/10/08 06:05:22;;;;;;;4.93;1.27;;;;;;;12.26;99.76;101706.41;7394404;19;20348;-62
2023/10/08 06:18:28;;;;;;;3.20;1.10;;;;;;;12.40;100.00;101720.91;7393944;19;20415;-61
2023/10/08 06:21:01;;;;;;;5.55;1.35;;;;;;;12.44;99.81;101725.75;7397103;19;20368;-62
2023/10/08 06:23:35;;;;;;;5.70;1.50;;;;;;;12.47;99.45;101721.94;7395251;19;20360;-62
2023/10/08 06:26:14;;;;;;;3.78;1.48;;;;;;;12.50;99.44;101726.13;7394887;19;20356;-62
2023/10/08 06:28:43;;;;;;;5.30;1.50;;;;;;;12.56;99.13;101736.09;7397836;19;20352;-62
2023/10/08 06:31:11;;;;;;;4.40;1.50;;;;;;;12.61;99.07;101731.94;7394550;19;20360;-62
2023/10/08 06:33:40;;;;;;;3.47;1.38;;;;;;;12.62;98.71;101738.09;7395453;19;20348;-62
2023/10/08 06:38:41;;;;;;;6.80;1.58;;;;;;;12.60;98.35;101764.91;7390869;19;20377;-62
2023/10/08 06:41:17;;;;;;;3.35;1.50;;;;;;;12.61;98.33;101757.75;7394253;19;20360;-62
2023/10/08 06:44:13;;;;;;;4.50;1.25;;;;;;;12.65;98.59;101751.94;7395906;19;20341;-60
2023/10/08 06:46:42;;;;;;;5.97;2.20;;;;;;;12.69;98.40;101747.13;7394739;19;20415;-61
2023/10/08 06:49:11;;;;;;;7.00;1.50;;;;;;;12.72;97.86;101757.44;7395233;19;20368;-62
2023/10/08 06:51:43;;;;;;;4.20;1.15;;;;;;;12.78;97.91;101767.44;7394024;19;20352;-62
2023/10/08 06:54:13;;;;;;;5.63;1.55;;;;;;;12.85;97.88;101775.59;7386918;19;20740;-62
2023/10/08 06:56:46;;;;;;;5.00;1.67;;;;;;;12.88;97.32;101782.44;7396107;19;20364;-62
2023/10/08 06:59:14;;;;;;;5.10;1.60;;;;;;;12.97;97.43;101792.94;7390758;19;20694;-61
2023/10/08 07:01:46;;;;;;;5.60;1.60;;;;;;;13.05;97.36;101794.78;7385653;19;20372;-62
2023/10/08 07:04:14;;;;;;;4.55;1.30;;;;;;;13.15;97.39;101794.63;7390868;19;20698;-63
2023/10/08 07:06:50;;;;;;;4.93;1.70;;;;;;;13.23;96.89;101797.31;7387863;19;20388;-63
2023/10/08 07:09:29;;;;;;;5.55;1.90;;;;;;;13.26;96.50;101792.50;7388316;19;20375;-64
2023/10/08 07:11:57;;;;;;;5.22;1.77;;;;;;;13.28;96.03;101794.97;7388801;19;20392;-63
2023/10/08 07:14:28;;;;;;;4.60;1.70;;;;;;;13.30;95.81;101797.50;7395581;19;20853;-63
2023/10/08 07:17:00;;;;;;;5.50;1.73;;;;;;;13.37;96.10;101809.19;7392335;19;20372;-63
2023/10/08 07:19:39;;;;;;;7.65;2.08;;;;;;;13.45;96.19;101791.34;7395619;19;20347;-63
2023/10/08 07:22:28;;;;;;;7.05;2.05;;;;;;;13.58;95.91;101792.66;7394122;19;20403;-64
2023/10/08 07:24:57;;;;;;;4.97;1.93;;;;;;;13.66;95.38;101804.19;7390834;19;20423;-64
2023/10/08 07:27:29;;;;;;;4.70;1.42;;;;;;;13.73;94.44;101822.16;7391563;19;20922;-64
2023/10/08 07:30:00;;;;;;;4.82;1.77;;;;;;;13.81;94.27;101825.66;7392918;19;20361;-64
2023/10/08 07:32:30;;;;;;;3.30;1.50;;;;;;;13.91;93.89;101833.47;7394138;19;20371;-63
2023/10/08 07:35:14;;;;;;;5.90;1.60;;;;;;;13.93;93.10;101838.66;7391683;19;20355;-63
2023/10/08 07:37:42;;;;;;;5.15;1.80;;;;;;;13.97;92.84;101831.97;7391159;19;20349;-63
2023/10/08 07:40:11;;;;;;;4.00;1.67;;;;;;;14.02;92.45;101818.94;7393648;19;20383;-64
2023/10/08 07:42:39;;;;;;;5.63;1.60;;;;;;;14.04;91.93;101819.59;7395313;19;20340;-64
2023/10/08 07:45:06;;;;;;;5.05;1.90;;;;;;;14.09;91.61;101814.63;7392765;19;20964;-64
2023/10/08 07:47:32;;;;;;;6.85;1.55;;;;;;;14.20;92.04;101816.09;7395113;19;20351;-64
2023/10/08 07:49:59;;;;;;;5.38;1.80;;;;;;;14.33;91.91;101820.88;7394110;19;20357;-63
2023/10/08 07:52:26;;;;;;;4.93;1.52;;;;;;;14.42;91.02;101815.31;7393352;19;20363;-64
2023/10/08 07:54:53;;;;;;;6.07;1.75;;;;;;;14.43;89.46;101829.53;7391905;19;20911;-63
2023/10/08 07:57:25;;;;;;;5.72;2.00;;;;;;;14.44;89.81;101840.00;7395208;19;20876;-64
2023/10/08 08:00:01;;;;;;;5.88;1.60;;;;;;;14.41;88.64;101831.53;7392741;19;20374;-63
2023/10/08 08:02:38;;;;;;;6.15;1.70;;;;;;;14.51;89.50;101840.16;7391220;19;20360;-64
2023/10/08 08:05:06;;;;;;;5.55;1.85;;;;;;;14.59;89.12;101845.50;7381380;19;20406;-63
2023/10/08 08:07:33;;;;;;;6.57;1.88;;;;;;;14.65;87.85;101854.66;7387575;19;20677;-64
2023/10/08 08:10:00;;;;;;;4.78;1.63;;;;;;;14.72;87.83;101846.78;7390507;19;20372;-64
2023/10/08 08:12:28;;;;;;;4.85;1.60;;;;;;;14.78;88.01;101846.91;7389207;19;20344;-63
2023/10/08 08:14:55;;;;;;;5.53;1.80;;;;;;;14.84;87.56;101846.22;7390070;19;20372;-64
2023/10/08 08:17:22;;;;;;;5.75;1.80;;;;;;;14.89;87.16;101840.34;7391004;19;20400;-64
2023/10/08 08:19:52;;;;;;;4.28;1.60;;;;;;;14.96;86.54;101859.16;7385147;19;20788;-64
2023/10/08 08:22:21;;;;;;;5.78;1.88;;;;;;;14.96;84.14;101860.03;7390987;19;20376;-64
2023/10/08 08:25:05;;;;;;;5.82;1.75;;;;;;;15.12;85.02;101868.94;7391994;19;20376;-63
2023/10/08 08:27:31;;;;;;;4.97;1.77;;;;;;;15.33;83.61;101871.00;7390315;19;20419;-63
2023/10/08 08:30:15;;;;;;;6.22;1.90;;;;;;;15.43;81.32;101867.06;7390259;19;20372;-63
2023/10/08 08:32:47;;;;;;;6.10;1.88;;;;;;;15.54;82.16;101870.34;7389000;19;20372;-63
2023/10/08 08:35:19;;;;;;;5.55;1.63;;;;;;;15.53;78.48;101871.34;7389641;19;20359;-63
2023/10/08 08:37:47;;;;;;;5.53;1.92;;;;;;;15.57;78.94;101873.47;7392539;19;20385;-64
2023/10/08 08:40:17;;;;;;;5.88;1.80;;;;;;;15.64;78.64;101869.09;7389712;19;20348;-63
2023/10/08 08:42:46;;;;;;;7.80;1.80;;;;;;;15.61;79.10;101876.63;7390079;19;20381;-64
2023/10/08 08:45:20;;;;;;;5.23;1.70;;;;;;;15.69;79.61;101872.03;7390096;19;20371;-64
2023/10/08 08:47:47;;;;;;;3.42;1.25;;;;;;;15.76;76.48;101874.88;7388656;19;20359;-63
2023/10/08 08:50:14;;;;;;;5.40;1.70;;;;;;;15.69;72.15;101879.25;7387741;19;20435;-62
2023/10/08 08:52:42;;;;;;;4.70;1.48;;;;;;;15.76;72.42;101882.06;7379265;19;20908;-64
2023/10/08 08:55:16;;;;;;;5.18;1.40;;;;;;;15.83;69.79;101894.56;7389103;19;20364;-64
2023/10/08 08:57:47;;;;;;;4.80;1.42;;;;;;;15.92;70.04;101891.78;7392021;19;20376;-64
2023/10/08 09:00:18;;;;;;;4.38;1.48;;;;;;;16.03;71.60;101899.41;7385219;19;20371;-64
2023/10/08 09:02:47;;;;;;;4.47;1.33;;;;;;;16.04;72.44;101898.38;7396256;19;20859;-64
2023/10/08 09:05:25;;;;;;;5.22;1.52;;;;;;;16.13;71.28;101899.97;7396008;19;20432;-63
2023/10/08 09:08:07;;;;;;;5.80;1.98;;;;;;;16.20;72.65;101898.22;7397451;19;20372;-65
2023/10/08 09:10:51;;;;;;;4.88;1.35;;;;;;;16.34;72.79;101909.94;7400278;19;20360;-63
2023/10/08 09:13:22;;;;;;;5.05;1.30;;;;;;;16.44;71.43;101923.06;7397505;19;20340;-63
2023/10/08 09:15:51;;;;;;;4.50;1.30;;;;;;;16.39;70.72;101920.97;7396084;19;20345;-63
2023/10/08 09:18:22;;;;;;;4.75;1.20;;;;;;;16.36;71.14;101921.31;7395631;19;20351;-63
2023/10/08 09:20:49;;;;;;;8.93;1.40;;;;;;;16.41;69.77;101918.09;7396604;19;20428;-63
2023/10/08 09:23:21;;;;;;;5.03;1.17;;;;;;;16.47;69.24;101922.72;7396002;19;20352;-63
2023/10/08 09:26:02;;;;;;;3.80;1.40;;;;;;;16.50;68.62;101928.53;7396720;19;20391;-63
2023/10/08 09:28:32;;;;;;;4.93;1.05;;;;;;;16.52;67.32;101925.66;7398313;19;20699;-63
2023/10/08 09:30:59;;;;;;;3.22;1.33;;;;;;;16.51;68.23;101924.00;7398160;19;20365;-63
2023/10/08 09:33:28;;;;;;;6.35;1.50;;;;;;;16.59;66.79;101926.59;7395324;19;20370;-63
2023/10/08 09:36:02;;;;;;;4.70;1.15;;;;;;;16.71;66.85;101929.66;7394857;19;20328;-63
2023/10/08 09:38:30;;;;;;;5.47;1.70;;;;;;;16.80;65.67;101928.56;7396024;19;20369;-63
2023/10/08 09:40:57;;;;;;;4.82;1.00;;;;;;;16.85;65.14;101917.28;7398725;19;20904;-63
2023/10/08 09:43:27;;;;;;;5.03;0.93;;;;;;;16.81;60.54;101924.03;7393878;19;20340;-63
2023/10/08 09:46:08;;;;;;;5.57;1.60;;;;;;;16.84;59.51;101924.50;7396705;19;20884;-63
2023/10/08 09:48:41;;;;;;;2.95;0.77;;;;;;;16.86;57.73;101927.00;7399778;19;20352;-63
2023/10/08 09:51:12;;;;;;;4.65;1.10;;;;;;;17.04;59.43;101924.75;7394975;19;20369;-63
2023/10/08 09:54:20;;;;;;;6.10;1.33;;;;;;;17.24;60.18;101929.53;7395354;19;20364;-63
2023/10/08 09:56:47;;;;;;;4.25;1.40;;;;;;;17.48;59.12;101921.09;7394802;19;20347;-63
2023/10/08 09:59:16;;;;;;;5.50;1.40;;;;;;;17.60;57.20;101912.56;7394310;19;20389;-63
2023/10/08 10:01:44;;;;;;;5.45;1.30;;;;;;;17.73;58.35;101918.88;7394065;19;20418;-63
2023/10/08 10:04:28;;;;;;;5.93;1.70;;;;;;;17.90;58.41;101922.16;7395316;19;20344;-63
2023/10/08 10:06:57;;;;;;;6.47;1.00;;;;;;;18.07;58.02;101917.34;7392434;19;20340;-63
2023/10/08 10:09:26;;;;;;;8.85;1.60;;;;;;;18.34;57.96;101913.00;7391941;19;20364;-63
2023/10/08 10:11:54;;;;;;;5.28;1.20;;;;;;;18.56;54.75;101915.59;7395177;19;20393;-63
2023/10/08 10:14:25;;;;;;;8.48;1.73;;;;;;;18.75;54.75;101916.72;7394406;19;20345;-63
2023/10/08 10:17:16;;;;;;;4.88;0.98;;;;;;;18.69;52.94;101918.34;7392113;19;20373;-62
2023/10/08 10:20:06;;;;;;;5.10;1.30;;;;;;;18.54;52.94;101907.72;7393898;19;20336;-63
2023/10/08 10:22:34;;;;;;;6.70;1.50;;;;;;;18.56;54.07;101907.53;7392623;19;20383;-62
2023/10/08 10:25:14;;;;;;;5.78;1.13;;;;;;;18.69;54.61;101912.97;7395938;19;20787;-63
2023/10/08 10:27:55;;;;;;;5.30;1.25;;;;;;;18.71;52.80;101918.97;7393031;19;20423;-63
2023/10/08 10:30:23;;;;;;;6.57;1.45;;;;;;;18.54;53.34;101906.91;7395861;19;20341;-63
2023/10/08 10:32:54;;;;;;;5.80;1.38;;;;;;;18.44;53.47;101920.69;7396074;19;20336;-63
2023/10/08 10:35:23;;;;;;;4.63;1.30;;;;;;;18.50;54.37;101945.94;7392652;19;20336;-63
2023/10/08 10:37:55;;;;;;;6.25;1.17;;;;;;;18.63;53.94;101956.75;7396400;19;20404;-63
2023/10/08 10:40:39;;;;;;;4.80;1.03;;;;;;;18.74;53.28;101953.53;7392742;19;20369;-63
2023/10/08 10:43:09;;;;;;;5.28;1.05;;;;;;;18.83;52.34;101951.56;7387605;19;20344;-63
2023/10/08 10:45:36;;;;;;;3.97;0.93;;;;;;;18.84;51.58;101936.25;7388512;19;20368;-63
2023/10/08 10:54:09;;;;;;;4.45;1.13;;;;;;;18.87;51.52;101950.13;7388695;19;20899;-63
2023/10/08 10:56:31;;;;;;;5.53;1.20;;;;;;;19.13;53.17;101935.94;7395601;19;20695;-63
2023/10/08 10:59:18;;;;;;;5.55;1.35;;;;;;;19.43;52.44;101934.81;7392915;19;20377;-63
2023/10/08 11:04:33;;;;;;;4.15;1.35;;;;;;;20.05;48.72;101951.69;7393980;19;20365;-63
2023/10/08 11:07:01;;;;;;;3.45;1.35;;;;;;;20.39;48.85;101934.44;7393198;19;20364;-63
2023/10/08 11:09:38;;;;;;;4.47;1.23;;;;;;;20.45;46.46;101949.78;7394504;19;20375;-62
2023/10/08 11:12:11;;;;;;;8.57;3.73;;;;;;;20.31;47.41;101948.94;7393839;19;20369;-63
2023/10/08 11:14:42;;;;;;;5.60;2.20;;;;;;;20.35;46.57;101935.91;7393399;19;20434;-63
2023/10/08 11:17:19;;;;;;;6.40;1.73;;;;;;;20.43;45.71;101934.84;7393467;19;20367;-63
2023/10/08 11:19:46;;;;;;;19.67;15.27;;;;;;;20.49;45.97;101939.41;7388713;19;20435;-63
2023/10/08 11:22:16;;;;;;;6.53;1.30;;;;;;;20.65;46.20;101946.25;7388792;19;20356;-63
2023/10/08 11:24:53;;;;;;;4.88;1.45;;;;;;;20.80;45.46;101935.19;7389315;19;20380;-63
2023/10/08 11:27:35;;;;;;;6.57;1.77;;;;;;;21.14;45.56;101910.56;7387656;19;20356;-64
2023/10/08 11:30:10;;;;;;;6.73;1.70;;;;;;;21.33;44.07;101886.38;7392697;19;20920;-62
2023/10/08 11:32:38;;;;;;;6.85;2.35;;;;;;;21.38;43.76;101906.28;7395371;19;20380;-63
2023/10/08 11:35:15;;;;;;;5.05;1.45;;;;;;;21.44;42.93;101928.06;7394181;19;20365;-63
2023/10/08 11:37:50;;;;;;;4.28;1.30;;;;;;;21.36;42.93;101945.34;7392673;19;20345;-63
2023/10/08 11:40:28;;;;;;;5.25;1.27;;;;;;;21.23;42.89;101967.81;7389695;19;20902;-62
2023/10/08 11:42:59;;;;;;;5.05;1.35;;;;;;;21.29;42.37;101956.13;7390531;19;20352;-63
2023/10/08 11:45:26;;;;;;;4.03;1.50;;;;;;;21.51;43.23;101932.41;7392973;19;20419;-62
2023/10/08 11:47:57;;;;;;;4.70;1.23;;;;;;;21.71;41.53;101915.22;7389921;19;20786;-62
2023/10/08 11:50:30;;;;;;;3.90;1.00;;;;;;;21.85;41.89;101897.03;7390905;19;20436;-63
2023/10/08 11:53:02;;;;;;;6.13;1.45;;;;;;;21.80;41.73;101870.66;7391786;19;20360;-62
2023/10/08 11:55:35;;;;;;;4.10;1.60;;;;;;;21.90;41.10;101889.91;7392023;19;20455;-63
2023/10/08 11:58:10;;;;;;;4.75;1.30;;;;;;;22.11;41.42;101921.13;7393161;19;20751;-63
2023/10/08 12:00:43;;;;;;;3.72;1.13;;;;;;;22.49;41.34;101916.63;7391594;19;20341;-62
2023/10/08 12:03:17;;;;;;;5.80;1.10;;;;;;;22.73;39.86;101923.81;7391371;19;20803;-62
2023/10/08 12:05:50;;;;;;;4.60;1.23;;;;;;;22.97;40.85;101918.53;7391604;19;20340;-62
2023/10/08 12:08:20;;;;;;;6.88;1.80;;;;;;;23.25;39.78;101915.28;7389147;19;20372;-63
2023/10/08 12:10:48;;;;;;;3.43;1.30;;;;;;;23.31;39.00;101911.66;7390626;19;20356;-63
2023/10/08 12:13:16;;;;;;;3.67;1.10;;;;;;;23.74;39.07;101904.34;7392982;19;20870;-62
2023/10/08 12:15:47;;;;;;;4.22;1.13;;;;;;;23.89;38.02;101915.59;7391676;19;20369;-63
2023/10/08 12:18:26;;;;;;;4.78;1.08;;;;;;;23.90;37.85;101911.78;7389540;19;20355;-63
2023/10/08 12:20:56;;;;;;;4.13;1.40;;;;;;;23.94;38.41;101923.00;7385048;19;20890;-63
2023/10/08 12:23:26;;;;;;;4.55;1.48;;;;;;;24.21;37.91;101912.53;7387906;19;20345;-64
2023/10/08 12:25:55;;;;;;;4.55;1.45;;;;;;;24.30;36.96;101911.09;7386803;19;20430;-63
2023/10/08 12:28:23;;;;;;;4.40;1.00;;;;;;;24.30;37.79;101900.25;7384612;19;20420;-63
2023/10/08 12:30:55;;;;;;;4.50;1.35;;;;;;;24.30;37.80;101897.53;7391392;19;20348;-64
2023/10/08 12:33:26;;;;;;;5.20;1.30;;;;;;;24.19;36.44;101898.38;7388614;19;20347;-63
2023/10/08 12:35:53;;;;;;;4.38;1.25;;;;;;;23.96;36.55;101900.03;7389881;19;20336;-63
2023/10/08 12:38:24;;;;;;;3.72;1.10;;;;;;;23.83;38.00;101897.53;7398034;19;20373;-64
2023/10/08 12:40:54;;;;;;;4.85;1.23;;;;;;;23.66;36.63;101888.44;7398036;19;20368;-66
2023/10/08 12:43:22;;;;;;;3.50;1.00;;;;;;;23.53;37.00;101882.16;7396149;19;20388;-63
2023/10/08 12:45:53;;;;;;;3.50;1.15;;;;;;;23.52;37.29;101876.97;7392296;19;20371;-64
2023/10/08 12:48:28;;;;;;;5.20;1.20;;;;;;;23.30;36.86;101873.97;7394829;19;20694;-64
2023/10/08 12:51:00;;;;;;;4.43;1.25;;;;;;;22.89;36.17;101862.06;7400625;19;20356;-65
2023/10/08 12:53:36;;;;;;;3.42;1.17;;;;;;;22.93;37.22;101849.69;7394441;19;20886;-64
2023/10/08 12:56:05;;;;;;;3.13;1.05;;;;;;;23.10;36.77;101848.03;7398693;19;20384;-64
2023/10/08 12:58:44;;;;;;;4.78;1.30;;;;;;;23.33;36.68;101835.59;7398611;19;20752;-63
2023/10/08 13:01:11;;;;;;;3.42;1.02;;;;;;;23.49;36.25;101836.81;7395269;19;20376;-64
2023/10/08 13:03:41;;;;;;;4.43;1.30;;;;;;;23.69;37.34;101820.22;7396015;19;20720;-64